createdAt,value
2018-01-16T00:00:29.082Z,78.39
2018-01-16T00:01:29.065Z,80.19
2018-01-16T00:02:29.060Z,81.33
2018-01-16T00:03:31.558Z,80.48
2018-01-16T00:04:29.039Z,79.06
2018-01-16T00:05:30.557Z,79.72
2018-01-16T00:06:29.057Z,80.29
2018-01-16T00:07:29.039Z,81.71
2018-01-16T00:08:29.009Z,80.86
2018-01-16T00:09:29.025Z,80.10
2018-01-16T00:10:28.998Z,80.48
2018-01-16T00:11:30.553Z,80.00
2018-01-16T00:12:28.989Z,80.43
2018-01-16T00:13:30.553Z,81.66
2018-01-16T00:14:28.972Z,80.24
2018-01-16T00:15:28.962Z,83.74
2018-01-16T00:16:30.548Z,82.42
2018-01-16T00:17:28.956Z,79.28
2018-01-16T00:18:28.959Z,79.38
2018-01-16T00:19:30.585Z,78.91
2018-01-16T00:20:28.941Z,80.43
2018-01-16T00:21:28.928Z,82.13
2018-01-16T00:22:28.917Z,81.47
2018-01-16T00:23:28.913Z,80.90
2018-01-16T00:24:28.896Z,82.04
2018-01-16T00:25:28.923Z,80.52
2018-01-16T00:26:28.899Z,79.85
2018-01-16T00:27:28.877Z,82.51
2018-01-16T00:28:28.873Z,80.99
2018-01-16T00:29:28.870Z,79.85
2018-01-16T00:30:28.871Z,81.18
2018-01-16T00:31:28.871Z,80.04
2018-01-16T00:32:28.845Z,81.47
2018-01-16T00:33:28.845Z,80.43
2018-01-16T00:34:28.831Z,81.27
2018-01-16T00:35:28.824Z,80.71
2018-01-16T00:36:28.836Z,82.42
2018-01-16T00:37:28.810Z,82.32
2018-01-16T00:38:28.826Z,80.80
2018-01-16T00:39:28.795Z,82.51
2018-01-16T00:40:28.795Z,80.71
2018-01-16T00:41:28.795Z,80.18
2018-01-16T00:42:28.825Z,79.76
2018-01-16T00:43:28.780Z,78.53
2018-01-16T00:44:28.764Z,80.43
2018-01-16T00:45:28.774Z,79.28
2018-01-16T00:46:28.780Z,81.47
2018-01-16T00:47:28.766Z,81.37
2018-01-16T00:48:28.739Z,80.14
2018-01-16T00:49:28.738Z,81.47
2018-01-16T00:50:28.725Z,81.18
2018-01-16T00:51:28.718Z,84.36
2018-01-16T00:52:28.728Z,85.02
2018-01-16T00:53:28.722Z,84.83
2018-01-16T00:54:28.700Z,80.84
2018-01-16T00:55:28.712Z,82.17
2018-01-16T00:56:31.563Z,80.27
2018-01-16T00:57:28.684Z,80.37
2018-01-16T00:58:28.679Z,81.13
2018-01-16T00:59:28.667Z,81.88
2018-01-16T01:00:28.658Z,83.88
2018-01-16T01:01:28.655Z,81.60
2018-01-16T01:02:28.659Z,81.32
2018-01-16T01:03:28.647Z,83.40
2018-01-16T01:04:28.655Z,84.64
2018-01-16T01:05:28.628Z,82.65
2018-01-16T01:06:30.560Z,81.23
2018-01-16T01:07:28.616Z,81.70
2018-01-16T01:08:28.614Z,83.97
2018-01-16T01:09:28.619Z,85.06
2018-01-16T01:10:28.605Z,84.97
2018-01-16T01:11:28.590Z,83.16
2018-01-16T01:12:28.595Z,82.59
2018-01-16T01:13:28.580Z,84.87
2018-01-16T01:14:28.571Z,81.45
2018-01-16T01:15:30.077Z,82.50
2018-01-16T01:16:28.568Z,81.26
2018-01-16T01:17:28.557Z,81.93
2018-01-16T01:18:28.550Z,83.54
2018-01-16T01:19:28.539Z,82.50
2018-01-16T01:20:28.536Z,81.45
2018-01-16T01:21:30.068Z,80.88
2018-01-16T01:22:31.062Z,81.26
2018-01-16T01:23:28.557Z,81.55
2018-01-16T01:24:28.512Z,81.45
2018-01-16T01:25:28.535Z,80.41
2018-01-16T01:26:28.511Z,82.59
2018-01-16T01:27:28.504Z,82.50
2018-01-16T01:28:28.502Z,82.69
2018-01-16T01:29:28.487Z,81.65
2018-01-16T01:30:28.484Z,80.22
2018-01-16T01:31:28.474Z,82.69
2018-01-16T01:32:28.468Z,83.26
2018-01-16T01:33:28.465Z,83.45
2018-01-16T01:34:28.484Z,82.59
2018-01-16T01:35:28.457Z,80.13
2018-01-16T01:36:28.468Z,82.03
2018-01-16T01:37:28.439Z,80.98
2018-01-16T01:38:28.442Z,80.41
2018-01-16T01:39:28.436Z,81.36
2018-01-16T01:40:28.437Z,80.41
2018-01-16T01:41:28.428Z,79.74
2018-01-16T01:42:28.412Z,79.55
2018-01-16T01:43:28.406Z,80.98
2018-01-16T01:44:28.397Z,81.17
2018-01-16T01:45:28.398Z,81.07
2018-01-16T01:46:28.389Z,80.98
2018-01-16T01:47:28.383Z,80.41
2018-01-16T01:48:28.373Z,79.46
2018-01-16T01:49:28.382Z,80.98
2018-01-16T01:50:28.378Z,79.55
2018-01-16T01:51:28.349Z,79.17
2018-01-16T01:52:28.359Z,79.55
2018-01-16T01:53:28.350Z,79.08
2018-01-16T01:54:28.372Z,80.98
2018-01-16T01:55:28.328Z,79.94
2018-01-16T01:56:28.341Z,78.32
2018-01-16T01:57:28.319Z,80.88
2018-01-16T01:58:28.328Z,83.39
2018-01-16T01:59:28.328Z,79.97
2018-01-16T02:00:28.298Z,80.45
2018-01-16T02:01:28.302Z,78.74
2018-01-16T02:02:28.290Z,77.66
2018-01-16T02:03:28.286Z,78.03
2018-01-16T02:04:28.280Z,80.32
2018-01-16T02:05:28.336Z,79.55
2018-01-16T02:06:28.266Z,78.13
2018-01-16T02:07:28.267Z,79.65
2018-01-16T02:08:28.262Z,79.55
2018-01-16T02:09:28.256Z,80.03
2018-01-16T02:10:28.242Z,81.59
2018-01-16T02:11:28.248Z,79.79
2018-01-16T02:12:28.233Z,80.26
2018-01-16T02:13:30.080Z,78.45
2018-01-16T02:14:28.236Z,78.42
2018-01-16T02:15:28.213Z,76.61
2018-01-16T02:16:28.222Z,77.66
2018-01-16T02:17:28.225Z,77.56
2018-01-16T02:18:28.205Z,77.56
2018-01-16T02:19:28.194Z,79.08
2018-01-16T02:20:28.186Z,79.55
2018-01-16T02:21:28.177Z,78.13
2018-01-16T02:22:28.173Z,76.61
2018-01-16T02:23:28.179Z,77.47
2018-01-16T02:24:28.173Z,78.42
2018-01-16T02:25:30.074Z,79.84
2018-01-16T02:26:28.152Z,80.41
2018-01-16T02:27:28.149Z,80.13
2018-01-16T02:28:30.076Z,79.17
2018-01-16T02:29:28.139Z,80.41
2018-01-16T02:30:28.130Z,78.99
2018-01-16T02:31:28.141Z,78.32
2018-01-16T02:32:28.133Z,78.23
2018-01-16T02:33:28.127Z,79.17
2018-01-16T02:34:28.110Z,79.27
2018-01-16T02:35:28.113Z,78.32
2018-01-16T02:36:28.098Z,78.23
2018-01-16T02:37:28.101Z,78.61
2018-01-16T02:38:28.083Z,78.99
2018-01-16T02:39:28.073Z,78.32
2018-01-16T02:40:28.078Z,78.32
2018-01-16T02:41:29.594Z,79.94
2018-01-16T02:42:28.066Z,79.08
2018-01-16T02:43:28.054Z,80.60
2018-01-16T02:44:28.050Z,82.78
2018-01-16T02:45:30.599Z,79.74
2018-01-16T02:46:29.596Z,82.31
2018-01-16T02:47:29.602Z,80.60
2018-01-16T02:48:29.605Z,78.61
2018-01-16T02:49:28.026Z,78.32
2018-01-16T02:50:28.017Z,78.61
2018-01-16T02:51:28.008Z,78.55
2018-01-16T02:52:28.006Z,80.41
2018-01-16T02:53:28.000Z,81.07
2018-01-16T02:54:28.000Z,80.13
2018-01-16T02:55:29.579Z,78.61
2018-01-16T02:56:27.986Z,78.51
2018-01-16T02:57:27.981Z,79.55
2018-01-16T02:58:29.608Z,78.89
2018-01-16T02:59:27.962Z,80.41
2018-01-16T03:00:27.958Z,80.22
2018-01-16T03:01:27.960Z,80.13
2018-01-16T03:02:27.971Z,78.80
2018-01-16T03:03:27.964Z,79.46
2018-01-16T03:04:30.590Z,78.99
2018-01-16T03:05:27.940Z,79.84
2018-01-16T03:06:27.932Z,78.89
2018-01-16T03:07:27.925Z,78.61
2018-01-16T03:08:27.917Z,77.56
2018-01-16T03:09:27.912Z,81.26
2018-01-16T03:10:27.902Z,80.32
2018-01-16T03:11:27.905Z,80.26
2018-01-16T03:12:27.903Z,81.12
2018-01-16T03:13:27.898Z,79.50
2018-01-16T03:14:27.882Z,79.60
2018-01-16T03:15:27.871Z,82.45
2018-01-16T03:16:27.866Z,79.69
2018-01-16T03:17:27.875Z,81.12
2018-01-16T03:18:29.589Z,79.69
2018-01-16T03:19:27.848Z,80.93
2018-01-16T03:20:27.854Z,78.32
2018-01-16T03:21:27.846Z,79.41
2018-01-16T03:22:27.836Z,80.88
2018-01-16T03:23:27.829Z,82.54
2018-01-16T03:24:27.829Z,79.50
2018-01-16T03:25:27.821Z,79.50
2018-01-16T03:26:27.846Z,78.36
2018-01-16T03:27:27.809Z,79.60
2018-01-16T03:28:27.804Z,78.45
2018-01-16T03:29:27.808Z,77.70
2018-01-16T03:30:27.802Z,78.13
2018-01-16T03:31:27.790Z,77.84
2018-01-16T03:32:27.797Z,78.70
2018-01-16T03:33:27.777Z,78.32
2018-01-16T03:34:27.777Z,81.07
2018-01-16T03:35:27.764Z,80.22
2018-01-16T03:36:29.592Z,78.99
2018-01-16T03:37:27.752Z,79.17
2018-01-16T03:38:27.766Z,78.89
2018-01-16T03:39:27.746Z,78.13
2018-01-16T03:40:27.731Z,79.08
2018-01-16T03:41:27.759Z,80.98
2018-01-16T03:42:29.590Z,81.36
2018-01-16T03:43:27.722Z,79.79
2018-01-16T03:44:27.726Z,81.02
2018-01-16T03:45:27.706Z,82.82
2018-01-16T03:46:27.709Z,80.35
2018-01-16T03:47:30.607Z,79.41
2018-01-16T03:48:28.691Z,80.26
2018-01-16T03:49:27.699Z,81.02
2018-01-16T03:50:29.611Z,81.40
2018-01-16T03:51:27.681Z,82.92
2018-01-16T03:52:27.679Z,83.20
2018-01-16T03:53:27.672Z,78.08
2018-01-16T03:54:27.702Z,77.89
2018-01-16T03:55:29.599Z,78.74
2018-01-16T03:56:27.653Z,79.50
2018-01-16T03:57:27.650Z,79.60
2018-01-16T03:58:27.643Z,78.17
2018-01-16T03:59:27.630Z,79.60
2018-01-16T04:00:27.636Z,79.60
2018-01-16T04:01:29.627Z,79.69
2018-01-16T04:02:27.620Z,81.02
2018-01-16T04:03:27.619Z,81.02
2018-01-16T04:04:29.105Z,80.55
2018-01-16T04:05:27.600Z,81.40
2018-01-16T04:06:31.094Z,80.68
2018-01-16T04:07:27.604Z,81.35
2018-01-16T04:08:27.589Z,79.63
2018-01-16T04:09:27.596Z,78.21
2018-01-16T04:10:27.571Z,78.17
2018-01-16T04:11:27.579Z,80.02
2018-01-16T04:12:27.572Z,80.21
2018-01-16T04:13:27.560Z,80.96
2018-01-16T04:14:29.097Z,79.97
2018-01-16T04:15:27.545Z,81.92
2018-01-16T04:16:27.546Z,82.49
2018-01-16T04:17:27.553Z,80.30
2018-01-16T04:18:27.551Z,79.73
2018-01-16T04:19:27.530Z,79.73
2018-01-16T04:20:27.525Z,79.44
2018-01-16T04:21:27.520Z,80.49
2018-01-16T04:22:27.522Z,82.10
2018-01-16T04:23:27.503Z,81.54
2018-01-16T04:24:27.497Z,80.30
2018-01-16T04:25:27.500Z,81.73
2018-01-16T04:26:27.491Z,79.54
2018-01-16T04:27:27.485Z,80.02
2018-01-16T04:28:27.498Z,80.02
2018-01-16T04:29:27.478Z,80.26
2018-01-16T04:30:27.470Z,79.22
2018-01-16T04:31:27.472Z,78.93
2018-01-16T04:32:27.465Z,78.83
2018-01-16T04:33:27.463Z,79.60
2018-01-16T04:34:27.452Z,80.16
2018-01-16T04:35:27.442Z,80.96
2018-01-16T04:36:29.106Z,80.30
2018-01-16T04:37:27.467Z,81.73
2018-01-16T04:38:27.432Z,79.73
2018-01-16T04:39:27.432Z,79.22
2018-01-16T04:40:27.417Z,79.69
2018-01-16T04:41:27.416Z,79.83
2018-01-16T04:42:35.063Z,80.40
2018-01-16T04:44:21.780Z,81.44
2018-01-16T04:45:21.767Z,80.68
2018-01-16T04:47:23.774Z,81.16
2018-01-16T04:48:15.132Z,80.02
2018-01-16T04:50:09.487Z,78.78
2018-01-16T04:51:09.470Z,79.35
2018-01-16T04:53:02.844Z,79.63
2018-01-16T04:54:02.822Z,79.69
2018-01-16T04:55:57.204Z,80.21
2018-01-16T04:56:57.198Z,80.26
2018-01-16T04:58:50.555Z,79.22
2018-01-16T04:59:50.550Z,79.50
2018-01-16T05:01:44.937Z,80.55
2018-01-16T05:02:44.915Z,79.88
2018-01-16T05:04:38.291Z,81.30
2018-01-16T05:05:38.296Z,80.16
2018-01-16T05:07:32.488Z,80.64
2018-01-16T05:08:32.492Z,81.02
2018-01-16T05:10:25.860Z,81.40
2018-01-16T05:11:25.840Z,81.59
2018-01-16T05:13:19.224Z,82.54
2018-01-16T05:14:19.202Z,82.82
2018-01-16T05:16:14.769Z,81.68
2018-01-16T05:17:14.743Z,82.35
2018-01-16T05:19:08.119Z,82.82
2018-01-16T05:20:08.100Z,82.54
2018-01-16T05:22:01.490Z,82.35
2018-01-16T05:23:01.468Z,83.11
2018-01-16T05:24:57.143Z,82.54
2018-01-16T05:25:57.073Z,82.35
2018-01-16T05:27:50.457Z,83.30
2018-01-16T05:28:50.433Z,82.54
2018-01-16T05:30:44.824Z,82.73
2018-01-16T05:31:44.810Z,82.82
2018-01-16T05:33:39.748Z,82.92
2018-01-16T05:34:39.200Z,83.39
2018-01-16T05:36:32.582Z,83.39
2018-01-16T05:37:32.538Z,82.92
2018-01-16T05:39:27.908Z,83.39
2018-01-16T05:40:27.905Z,83.11
2018-01-16T05:42:22.280Z,82.54
2018-01-16T05:43:22.324Z,83.11
2018-01-16T05:45:15.665Z,83.20
2018-01-16T05:46:15.648Z,84.72
2018-01-16T05:48:09.000Z,84.06
2018-01-16T05:49:08.998Z,84.25
2018-01-16T05:51:02.422Z,83.30
2018-01-16T05:52:02.369Z,83.39
2018-01-16T05:53:02.356Z,83.01
2018-01-16T05:54:02.340Z,83.20
2018-01-16T05:55:02.355Z,83.87
2018-01-16T05:56:02.328Z,82.92
2018-01-16T05:57:02.321Z,83.49
2018-01-16T05:58:02.323Z,83.68
2018-01-16T05:59:02.319Z,83.30
2018-01-16T06:00:02.314Z,83.49
2018-01-16T06:01:02.302Z,83.87
2018-01-16T06:02:02.298Z,84.34
2018-01-16T06:03:02.296Z,83.68
2018-01-16T06:04:02.286Z,83.97
2018-01-16T06:05:02.290Z,83.87
2018-01-16T06:06:02.283Z,85.01
2018-01-16T06:07:02.270Z,83.68
2018-01-16T06:08:02.279Z,85.01
2018-01-16T06:09:02.266Z,83.59
2018-01-16T06:10:02.277Z,83.68
2018-01-16T06:11:02.276Z,84.72
2018-01-16T06:12:02.248Z,84.25
2018-01-16T06:13:02.240Z,83.87
2018-01-16T06:14:02.239Z,83.78
2018-01-16T06:15:02.236Z,84.72
2018-01-16T06:16:02.239Z,84.91
2018-01-16T06:17:02.240Z,84.25
2018-01-16T06:18:02.217Z,83.68
2018-01-16T06:19:02.206Z,84.25
2018-01-16T06:20:02.215Z,85.01
2018-01-16T06:21:02.262Z,84.82
2018-01-16T06:22:02.195Z,84.25
2018-01-16T06:23:02.222Z,84.44
2018-01-16T06:24:02.192Z,84.72
2018-01-16T06:25:02.180Z,85.20
2018-01-16T06:26:02.181Z,85.39
2018-01-16T06:27:02.178Z,85.30
2018-01-16T06:28:02.218Z,87.19
2018-01-16T06:29:02.158Z,86.24
2018-01-16T06:30:02.151Z,84.91
2018-01-16T06:31:02.158Z,86.05
2018-01-16T06:32:02.141Z,84.63
2018-01-16T06:33:02.165Z,85.01
2018-01-16T06:34:02.127Z,84.63
2018-01-16T06:35:02.120Z,84.72
2018-01-16T06:36:02.121Z,85.49
2018-01-16T06:37:21.686Z,84.82
2018-01-16T06:39:16.951Z,85.68
2018-01-16T06:40:08.391Z,85.30
2018-01-16T06:42:02.089Z,86.15
2018-01-16T06:43:02.002Z,86.43
2018-01-16T06:44:01.896Z,86.72
2018-01-16T06:45:01.891Z,86.43
2018-01-16T06:46:01.772Z,86.82
2018-01-16T06:47:01.755Z,87.15
2018-01-16T06:48:01.844Z,89.53
2018-01-16T06:49:01.761Z,91.33
2018-01-16T06:50:01.750Z,90.38
2018-01-16T06:51:01.724Z,91.24
2018-01-16T06:52:01.739Z,91.14
2018-01-16T06:53:01.781Z,91.71
2018-01-16T06:54:01.705Z,91.42
2018-01-16T06:55:01.697Z,91.24
2018-01-16T06:56:01.787Z,91.61
2018-01-16T06:57:01.694Z,91.99
2018-01-16T06:58:01.686Z,91.42
2018-01-16T06:59:01.680Z,91.89
2018-01-16T07:00:01.678Z,92.28
2018-01-16T07:01:01.667Z,91.61
2018-01-16T07:02:01.672Z,92.28
2018-01-16T07:03:01.653Z,92.66
2018-01-16T07:04:01.667Z,92.66
2018-01-16T07:05:01.648Z,92.18
2018-01-16T07:06:01.651Z,91.42
2018-01-16T07:07:01.636Z,91.89
2018-01-16T07:08:01.646Z,92.09
2018-01-16T07:09:01.616Z,91.42
2018-01-16T07:10:01.614Z,92.09
2018-01-16T07:11:01.612Z,91.71
2018-01-16T07:12:01.610Z,91.89
2018-01-16T07:13:01.607Z,92.09
2018-01-16T07:14:01.595Z,91.99
2018-01-16T07:15:01.584Z,91.52
2018-01-16T07:16:01.589Z,91.61
2018-01-16T07:17:01.577Z,91.52
2018-01-16T07:18:01.582Z,91.14
2018-01-16T07:19:01.620Z,91.52
2018-01-16T07:20:01.565Z,91.89
2018-01-16T07:21:01.557Z,92.18
2018-01-16T07:22:01.545Z,92.47
2018-01-16T07:23:01.558Z,92.18
2018-01-16T07:24:01.530Z,91.71
2018-01-16T07:25:01.527Z,91.89
2018-01-16T07:26:01.519Z,91.33
2018-01-16T07:27:01.519Z,92.09
2018-01-16T07:28:01.506Z,92.18
2018-01-16T07:29:01.506Z,91.52
2018-01-16T07:30:01.494Z,91.80
2018-01-16T07:31:01.496Z,91.52
2018-01-16T07:32:01.494Z,91.42
2018-01-16T07:33:01.493Z,91.89
2018-01-16T07:34:01.504Z,91.89
2018-01-16T07:35:01.469Z,91.89
2018-01-16T07:36:01.466Z,92.56
2018-01-16T07:37:01.539Z,92.18
2018-01-16T07:39:45.386Z,91.71
2018-01-16T07:40:43.506Z,90.76
2018-01-16T07:41:43.500Z,90.38
2018-01-16T07:42:43.496Z,89.81
2018-01-16T07:43:43.486Z,89.90
2018-01-16T07:44:43.482Z,89.43
2018-01-16T07:45:43.474Z,90.00
2018-01-16T07:46:43.466Z,88.95
2018-01-16T07:47:43.464Z,88.53
2018-01-16T07:48:43.457Z,88.43
2018-01-16T07:49:43.454Z,88.05
2018-01-16T07:50:43.449Z,87.01
2018-01-16T07:51:43.442Z,87.29
2018-01-16T07:52:43.447Z,87.19
2018-01-16T07:53:43.436Z,87.19
2018-01-16T07:54:43.432Z,86.82
2018-01-16T07:55:43.426Z,87.10
2018-01-16T07:56:43.430Z,87.48
2018-01-16T07:57:43.412Z,87.19
2018-01-16T07:58:43.402Z,85.86
2018-01-16T07:59:43.418Z,86.34
2018-01-16T08:00:43.394Z,85.39
2018-01-16T08:01:43.392Z,85.30
2018-01-16T08:02:43.386Z,84.63
2018-01-16T08:03:43.377Z,85.01
2018-01-16T08:04:43.377Z,85.11
2018-01-16T08:05:43.366Z,84.44
2018-01-16T08:06:43.382Z,84.72
2018-01-16T08:07:43.357Z,85.01
2018-01-16T08:08:43.352Z,86.43
2018-01-16T08:09:43.365Z,85.01
2018-01-16T08:10:43.345Z,84.63
2018-01-16T08:11:43.339Z,85.01
2018-01-16T08:12:43.341Z,85.86
2018-01-16T08:13:43.330Z,88.05
2018-01-16T08:14:43.321Z,87.10
2018-01-16T08:15:43.316Z,87.01
2018-01-16T08:16:43.315Z,85.39
2018-01-16T08:17:43.314Z,84.63
2018-01-16T08:18:43.306Z,85.68
2018-01-16T08:19:43.305Z,84.82
2018-01-16T08:20:43.288Z,85.68
2018-01-16T08:21:43.314Z,85.11
2018-01-16T08:22:43.283Z,84.91
2018-01-16T08:23:43.283Z,85.58
2018-01-16T08:24:43.288Z,86.43
2018-01-16T08:25:43.268Z,86.76
2018-01-16T08:26:43.270Z,85.91
2018-01-16T08:27:43.264Z,85.72
2018-01-16T08:28:43.250Z,84.77
2018-01-16T08:29:43.252Z,84.20
2018-01-16T08:30:43.253Z,84.67
2018-01-16T08:31:43.237Z,83.06
2018-01-16T08:32:43.232Z,84.58
2018-01-16T08:33:43.239Z,85.43
2018-01-16T08:34:43.246Z,83.62
2018-01-16T08:35:43.221Z,82.58
2018-01-16T08:36:43.232Z,83.34
2018-01-16T08:37:43.207Z,82.58
2018-01-16T08:38:43.250Z,82.58
2018-01-16T08:39:43.199Z,83.82
2018-01-16T08:40:43.193Z,82.68
2018-01-16T08:41:43.189Z,83.72
2018-01-16T08:42:43.189Z,83.25
2018-01-16T08:43:43.180Z,82.87
2018-01-16T08:44:43.174Z,81.73
2018-01-16T08:45:43.178Z,81.63
2018-01-16T08:46:43.168Z,83.72
2018-01-16T08:47:43.164Z,84.01
2018-01-16T08:48:43.208Z,83.34
2018-01-16T08:49:43.180Z,82.87
2018-01-16T08:50:43.155Z,83.44
2018-01-16T08:51:43.152Z,82.96
2018-01-16T08:52:43.141Z,82.20
2018-01-16T08:53:43.134Z,81.92
2018-01-16T08:54:43.135Z,81.92
2018-01-16T08:55:43.129Z,82.68
2018-01-16T08:56:43.123Z,83.25
2018-01-16T08:57:43.113Z,82.77
2018-01-16T08:58:43.110Z,81.92
2018-01-16T08:59:43.109Z,84.67
2018-01-16T09:00:43.131Z,84.86
2018-01-16T09:01:43.122Z,83.15
2018-01-16T09:02:43.098Z,82.68
2018-01-16T09:03:43.094Z,81.73
2018-01-16T09:04:43.089Z,82.01
2018-01-16T09:05:43.079Z,83.15
2018-01-16T09:06:43.082Z,83.72
2018-01-16T09:07:43.071Z,82.39
2018-01-16T09:08:43.069Z,82.49
2018-01-16T09:09:43.072Z,82.96
2018-01-16T09:10:43.084Z,83.53
2018-01-16T09:11:43.053Z,82.96
2018-01-16T09:12:43.054Z,82.96
2018-01-16T09:13:43.044Z,84.10
2018-01-16T09:14:43.039Z,83.44
2018-01-16T09:15:43.034Z,84.01
2018-01-16T09:16:43.032Z,84.01
2018-01-16T09:17:43.031Z,83.91
2018-01-16T09:18:43.036Z,83.68
2018-01-16T09:19:43.038Z,84.25
2018-01-16T09:20:43.021Z,84.82
2018-01-16T09:21:43.019Z,86.24
2018-01-16T09:22:43.008Z,87.38
2018-01-16T09:23:43.001Z,87.34
2018-01-16T09:24:42.993Z,87.87
2018-01-16T09:25:43.003Z,90.19
2018-01-16T09:26:42.992Z,92.57
2018-01-16T09:27:42.978Z,93.99
2018-01-16T09:28:42.973Z,95.31
2018-01-16T09:29:42.971Z,95.60
2018-01-16T09:30:42.969Z,95.26
2018-01-16T09:31:42.957Z,95.26
2018-01-16T09:32:42.963Z,95.74
2018-01-16T09:33:42.950Z,95.93
2018-01-16T09:34:42.939Z,96.12
2018-01-16T09:35:42.931Z,95.65
2018-01-16T09:36:42.931Z,95.93
2018-01-16T09:37:42.924Z,95.45
2018-01-16T09:38:42.921Z,95.26
2018-01-16T09:39:42.907Z,95.65
2018-01-16T09:40:42.909Z,95.93
2018-01-16T09:41:42.947Z,95.45
2018-01-16T09:42:42.893Z,95.65
2018-01-16T09:43:42.881Z,95.45
2018-01-16T09:44:42.878Z,95.88
2018-01-16T09:45:42.872Z,96.08
2018-01-16T09:46:42.862Z,96.64
2018-01-16T09:47:42.860Z,97.21
2018-01-16T09:48:42.851Z,97.12
2018-01-16T09:49:42.844Z,97.31
2018-01-16T09:50:42.837Z,97.74
2018-01-16T09:51:42.828Z,97.17
2018-01-16T09:52:42.824Z,96.59
2018-01-16T09:53:42.821Z,96.50
2018-01-16T09:54:42.810Z,96.69
2018-01-16T09:55:42.803Z,95.46
2018-01-16T09:56:42.807Z,94.98
2018-01-16T09:57:42.793Z,95.12
2018-01-16T09:58:42.784Z,93.99
2018-01-16T09:59:42.774Z,93.89
2018-01-16T10:00:42.770Z,94.56
2018-01-16T10:01:42.765Z,94.27
2018-01-16T10:02:42.765Z,94.08
2018-01-16T10:03:42.751Z,92.56
2018-01-16T10:04:42.748Z,93.04
2018-01-16T10:05:42.738Z,93.32
2018-01-16T10:06:42.736Z,93.84
2018-01-16T10:07:42.776Z,93.65
2018-01-16T10:08:42.725Z,92.42
2018-01-16T10:09:42.716Z,92.80
2018-01-16T10:10:42.706Z,92.66
2018-01-16T10:11:42.701Z,91.99
2018-01-16T10:12:42.697Z,89.19
2018-01-16T10:13:42.689Z,90.42
2018-01-16T10:14:42.686Z,92.08
2018-01-16T10:15:42.684Z,91.99
2018-01-16T10:16:42.675Z,91.28
2018-01-16T10:17:42.669Z,89.47
2018-01-16T10:18:42.665Z,89.95
2018-01-16T10:19:42.659Z,90.42
2018-01-16T10:20:42.653Z,89.62
2018-01-16T10:21:42.653Z,89.90
2018-01-16T10:22:42.646Z,91.42
2018-01-16T10:23:42.638Z,92.09
2018-01-16T10:24:42.634Z,91.89
2018-01-16T10:25:42.624Z,92.61
2018-01-16T10:26:42.620Z,93.04
2018-01-16T10:27:42.615Z,91.99
2018-01-16T10:28:42.610Z,93.08
2018-01-16T10:29:42.615Z,91.71
2018-01-16T10:30:42.598Z,90.66
2018-01-16T10:31:42.613Z,89.90
2018-01-16T10:32:42.591Z,90.38
2018-01-16T10:33:42.588Z,90.28
2018-01-16T10:34:42.588Z,91.61
2018-01-16T10:35:42.573Z,92.56
2018-01-16T10:36:42.561Z,92.18
2018-01-16T10:37:42.560Z,92.32
2018-01-16T10:38:42.558Z,92.90
2018-01-16T10:39:42.551Z,90.52
2018-01-16T10:40:42.546Z,91.66
2018-01-16T10:41:42.539Z,91.75
2018-01-16T10:42:42.534Z,90.90
2018-01-16T10:43:42.526Z,89.47
2018-01-16T10:44:42.539Z,90.66
2018-01-16T10:45:42.516Z,91.47
2018-01-16T10:46:42.507Z,91.19
2018-01-16T10:47:42.547Z,91.75
2018-01-16T10:48:42.498Z,90.80
2018-01-16T10:49:42.496Z,91.66
2018-01-16T10:50:42.490Z,90.80
2018-01-16T10:51:42.481Z,90.71
2018-01-16T10:52:42.483Z,92.13
2018-01-16T10:53:42.491Z,92.85
2018-01-16T10:54:42.466Z,91.42
2018-01-16T10:55:42.505Z,90.85
2018-01-16T10:56:42.454Z,90.09
2018-01-16T10:57:42.453Z,88.95
2018-01-16T10:58:42.443Z,87.01
2018-01-16T10:59:42.435Z,88.15
2018-01-16T11:00:42.432Z,89.86
2018-01-16T11:01:42.425Z,90.47
2018-01-16T11:02:42.420Z,91.52
2018-01-16T11:03:42.421Z,90.37
2018-01-16T11:04:42.412Z,89.90
2018-01-16T11:05:42.406Z,89.14
2018-01-16T11:06:42.408Z,87.43
2018-01-16T11:07:42.397Z,87.01
2018-01-16T11:08:42.385Z,86.43
2018-01-16T11:09:42.388Z,86.53
2018-01-16T11:10:42.381Z,86.43
2018-01-16T11:11:42.374Z,87.71
2018-01-16T11:12:42.371Z,87.24
2018-01-16T11:13:42.369Z,87.24
2018-01-16T11:14:42.360Z,87.24
2018-01-16T11:15:42.358Z,86.86
2018-01-16T11:16:42.352Z,86.57
2018-01-16T11:17:42.343Z,86.47
2018-01-16T11:18:42.347Z,86.57
2018-01-16T11:19:42.335Z,86.38
2018-01-16T11:20:42.330Z,86.57
2018-01-16T11:21:42.321Z,86.29
2018-01-16T11:22:42.322Z,87.81
2018-01-16T11:23:42.316Z,87.43
2018-01-16T11:24:42.305Z,87.81
2018-01-16T11:25:42.307Z,88.38
2018-01-16T11:26:42.306Z,86.95
2018-01-16T11:27:42.298Z,85.53
2018-01-16T11:28:42.293Z,87.05
2018-01-16T11:29:42.286Z,86.86
2018-01-16T11:30:42.282Z,86.29
2018-01-16T11:31:42.282Z,84.48
2018-01-16T11:32:42.272Z,86.29
2018-01-16T11:33:42.271Z,86.86
2018-01-16T11:34:42.265Z,86.10
2018-01-16T11:35:42.257Z,87.14
2018-01-16T11:36:42.256Z,86.15
2018-01-16T11:37:42.248Z,87.34
2018-01-16T11:38:42.266Z,87.34
2018-01-16T11:39:42.241Z,86.57
2018-01-16T11:40:42.245Z,86.29
2018-01-16T11:41:42.231Z,85.43
2018-01-16T11:42:42.239Z,86.67
2018-01-16T11:43:42.221Z,86.76
2018-01-16T11:44:42.214Z,87.05
2018-01-16T11:45:42.207Z,84.77
2018-01-16T11:46:42.200Z,86.00
2018-01-16T11:47:42.199Z,84.77
2018-01-16T11:48:42.203Z,84.95
2018-01-16T11:49:42.194Z,86.00
2018-01-16T11:50:42.190Z,86.38
2018-01-16T11:51:42.224Z,85.43
2018-01-16T11:52:42.180Z,85.47
2018-01-16T11:53:42.175Z,84.91
2018-01-16T11:54:42.166Z,85.19
2018-01-16T11:55:42.165Z,84.81
2018-01-16T11:56:42.172Z,85.47
2018-01-16T11:57:42.161Z,85.10
2018-01-16T11:58:42.155Z,85.28
2018-01-16T11:59:42.148Z,84.91
2018-01-16T12:00:42.141Z,84.62
2018-01-16T12:01:42.139Z,85.00
2018-01-16T12:02:42.148Z,85.57
2018-01-16T12:03:42.134Z,84.48
2018-01-16T12:04:42.126Z,84.62
2018-01-16T12:05:42.119Z,84.24
2018-01-16T12:06:42.124Z,84.20
2018-01-16T12:07:42.117Z,84.58
2018-01-16T12:08:42.112Z,84.86
2018-01-16T12:09:42.110Z,84.01
2018-01-16T12:10:42.098Z,83.82
2018-01-16T12:11:42.098Z,85.05
2018-01-16T12:12:42.105Z,84.86
2018-01-16T12:13:42.091Z,84.67
2018-01-16T12:14:42.080Z,84.95
2018-01-16T12:15:42.079Z,84.95
2018-01-16T12:16:42.076Z,84.39
2018-01-16T12:17:42.071Z,84.67
2018-01-16T12:18:42.065Z,86.33
2018-01-16T12:19:42.058Z,85.47
2018-01-16T12:20:42.056Z,85.00
2018-01-16T12:21:42.053Z,83.48
2018-01-16T12:22:42.046Z,83.00
2018-01-16T12:23:42.040Z,83.76
2018-01-16T12:24:42.043Z,84.91
2018-01-16T12:25:42.032Z,83.00
2018-01-16T12:26:42.031Z,83.10
2018-01-16T12:27:42.025Z,83.67
2018-01-16T12:28:42.021Z,83.86
2018-01-16T12:29:42.017Z,83.67
2018-01-16T12:30:42.021Z,83.04
2018-01-16T12:31:42.010Z,83.23
2018-01-16T12:32:42.009Z,84.19
2018-01-16T12:33:42.004Z,82.95
2018-01-16T12:34:41.997Z,81.48
2018-01-16T12:35:41.994Z,83.52
2018-01-16T12:36:41.991Z,84.28
2018-01-16T12:37:41.991Z,82.67
2018-01-16T12:38:41.984Z,83.04
2018-01-16T12:39:41.980Z,81.43
2018-01-16T12:40:41.979Z,81.62
2018-01-16T12:41:41.977Z,82.05
2018-01-16T12:42:41.962Z,84.05
2018-01-16T12:43:41.963Z,82.53
2018-01-16T12:44:41.966Z,83.00
2018-01-16T12:45:41.957Z,83.39
2018-01-16T12:46:41.957Z,85.80
2018-01-16T12:47:41.947Z,84.56
2018-01-16T12:48:41.948Z,84.47
2018-01-16T12:49:41.946Z,84.19
2018-01-16T12:50:41.942Z,84.95
2018-01-16T12:51:41.932Z,84.33
2018-01-16T12:52:41.936Z,83.00
2018-01-16T12:53:41.926Z,82.91
2018-01-16T12:54:41.926Z,82.62
2018-01-16T12:55:41.921Z,83.76
2018-01-16T12:56:41.922Z,83.95
2018-01-16T12:57:41.917Z,84.33
2018-01-16T12:58:41.916Z,83.29
2018-01-16T12:59:41.907Z,83.29
2018-01-16T13:00:41.903Z,83.39
2018-01-16T13:01:41.897Z,83.39
2018-01-16T13:02:41.891Z,83.29
2018-01-16T13:03:41.897Z,82.24
2018-01-16T13:04:41.886Z,82.53
2018-01-16T13:05:41.883Z,83.10
2018-01-16T13:06:41.882Z,83.29
2018-01-16T13:07:41.877Z,83.19
2018-01-16T13:08:41.870Z,82.05
2018-01-16T13:09:41.878Z,82.62
2018-01-16T13:10:41.866Z,84.52
2018-01-16T13:11:41.860Z,84.14
2018-01-16T13:12:41.888Z,82.71
2018-01-16T13:13:41.852Z,82.81
2018-01-16T13:14:41.861Z,81.48
2018-01-16T13:15:41.845Z,82.62
2018-01-16T13:16:41.837Z,81.38
2018-01-16T13:17:41.836Z,83.00